sensor_id;sensor_type;location;lat;lon;timestamp;P1;durP1;ratioP1;P2;durP2;ratioP2
8139;SDS011;4111;50.972;7.072;2023-12-28T00:02:09;6.03;;;2.17;;
8139;SDS011;4111;50.972;7.072;2023-12-28T00:04:35;2.30;;;1.70;;
8139;SDS011;4111;50.972;7.072;2023-12-28T00:07:02;3.07;;;2.17;;
8139;SDS011;4111;50.972;7.072;2023-12-28T00:09:29;3.63;;;2.03;;
8139;SDS011;4111;50.972;7.072;2023-12-28T00:11:56;2.13;;;1.90;;
8139;SDS011;4111;50.972;7.072;2023-12-28T00:14:22;1.70;;;1.60;;
8139;SDS011;4111;50.972;7.072;2023-12-28T00:16:49;2.37;;;2.00;;
8139;SDS011;4111;50.972;7.072;2023-12-28T00:19:15;2.30;;;2.03;;
8139;SDS011;4111;50.972;7.072;2023-12-28T00:21:42;2.13;;;1.90;;
8139;SDS011;4111;50.972;7.072;2023-12-28T00:24:09;2.07;;;1.87;;
8139;SDS011;4111;50.972;7.072;2023-12-28T00:26:35;2.70;;;1.80;;
8139;SDS011;4111;50.972;7.072;2023-12-28T00:29:02;1.97;;;1.80;;
8139;SDS011;4111;50.972;7.072;2023-12-28T00:31:28;1.80;;;1.70;;
8139;SDS011;4111;50.972;7.072;2023-12-28T00:33:55;2.50;;;1.93;;
8139;SDS011;4111;50.972;7.072;2023-12-28T00:36:21;1.90;;;1.80;;
8139;SDS011;4111;50.972;7.072;2023-12-28T00:38:48;1.80;;;1.50;;
8139;SDS011;4111;50.972;7.072;2023-12-28T00:41:14;2.23;;;1.60;;
8139;SDS011;4111;50.972;7.072;2023-12-28T00:43:41;1.60;;;1.50;;
8139;SDS011;4111;50.972;7.072;2023-12-28T00:46:07;2.03;;;1.50;;
8139;SDS011;4111;50.972;7.072;2023-12-28T00:48:34;2.63;;;1.60;;
8139;SDS011;4111;50.972;7.072;2023-12-28T00:51:00;1.97;;;1.53;;
8139;SDS011;4111;50.972;7.072;2023-12-28T00:53:27;4.97;;;1.70;;
8139;SDS011;4111;50.972;7.072;2023-12-28T00:55:53;1.90;;;1.80;;
8139;SDS011;4111;50.972;7.072;2023-12-28T00:58:20;2.50;;;1.63;;
8139;SDS011;4111;50.972;7.072;2023-12-28T01:00:46;2.77;;;1.77;;
8139;SDS011;4111;50.972;7.072;2023-12-28T01:03:13;1.87;;;1.53;;
8139;SDS011;4111;50.972;7.072;2023-12-28T01:05:39;2.47;;;1.60;;
8139;SDS011;4111;50.972;7.072;2023-12-28T01:08:06;2.63;;;1.80;;
8139;SDS011;4111;50.972;7.072;2023-12-28T01:10:32;1.63;;;1.53;;
8139;SDS011;4111;50.972;7.072;2023-12-28T01:12:59;2.03;;;1.63;;
8139;SDS011;4111;50.972;7.072;2023-12-28T01:15:25;2.80;;;1.60;;
8139;SDS011;4111;50.972;7.072;2023-12-28T01:17:52;2.00;;;1.60;;
8139;SDS011;4111;50.972;7.072;2023-12-28T01:20:19;4.00;;;2.00;;
8139;SDS011;4111;50.972;7.072;2023-12-28T01:22:45;2.23;;;1.50;;
8139;SDS011;4111;50.972;7.072;2023-12-28T01:25:12;2.33;;;1.70;;
8139;SDS011;4111;50.972;7.072;2023-12-28T01:27:39;2.13;;;1.67;;
8139;SDS011;4111;50.972;7.072;2023-12-28T01:30:05;2.23;;;1.60;;
8139;SDS011;4111;50.972;7.072;2023-12-28T01:32:35;2.57;;;1.60;;
8139;SDS011;4111;50.972;7.072;2023-12-28T01:35:03;1.90;;;1.50;;
8139;SDS011;4111;50.972;7.072;2023-12-28T01:37:30;1.50;;;1.40;;
8139;SDS011;4111;50.972;7.072;2023-12-28T01:40:07;2.40;;;1.40;;
8139;SDS011;4111;50.972;7.072;2023-12-28T01:42:36;2.77;;;1.37;;
8139;SDS011;4111;50.972;7.072;2023-12-28T01:45:03;1.30;;;1.20;;
8139;SDS011;4111;50.972;7.072;2023-12-28T01:47:33;1.73;;;1.20;;
8139;SDS011;4111;50.972;7.072;2023-12-28T01:50:05;1.73;;;1.27;;
8139;SDS011;4111;50.972;7.072;2023-12-28T01:52:32;1.27;;;1.20;;
8139;SDS011;4111;50.972;7.072;2023-12-28T01:54:59;1.40;;;1.20;;
8139;SDS011;4111;50.972;7.072;2023-12-28T01:57:26;2.20;;;1.30;;
8139;SDS011;4111;50.972;7.072;2023-12-28T01:59:53;1.50;;;1.40;;
8139;SDS011;4111;50.972;7.072;2023-12-28T02:02:22;1.27;;;1.17;;
8139;SDS011;4111;50.972;7.072;2023-12-28T02:04:59;1.30;;;1.20;;
8139;SDS011;4111;50.972;7.072;2023-12-28T02:07:27;1.27;;;1.27;;
8139;SDS011;4111;50.972;7.072;2023-12-28T02:09:55;1.63;;;1.53;;
8139;SDS011;4111;50.972;7.072;2023-12-28T02:12:22;1.33;;;1.23;;
8139;SDS011;4111;50.972;7.072;2023-12-28T02:14:50;2.00;;;1.30;;
8139;SDS011;4111;50.972;7.072;2023-12-28T02:32:01;1.07;;;1.00;;
8139;SDS011;4111;50.972;7.072;2023-12-28T02:34:37;0.87;;;0.87;;
8139;SDS011;4111;50.972;7.072;2023-12-28T02:37:08;0.90;;;0.90;;
8139;SDS011;4111;50.972;7.072;2023-12-28T02:39:38;0.83;;;0.83;;
8139;SDS011;4111;50.972;7.072;2023-12-28T02:42:06;1.63;;;0.80;;
8139;SDS011;4111;50.972;7.072;2023-12-28T02:44:33;1.13;;;1.00;;
8139;SDS011;4111;50.972;7.072;2023-12-28T02:46:59;1.00;;;1.00;;
8139;SDS011;4111;50.972;7.072;2023-12-28T02:49:26;1.00;;;1.00;;
8139;SDS011;4111;50.972;7.072;2023-12-28T02:51:56;0.80;;;0.80;;
8139;SDS011;4111;50.972;7.072;2023-12-28T02:54:22;1.10;;;1.00;;
8139;SDS011;4111;50.972;7.072;2023-12-28T02:56:51;1.00;;;1.00;;
8139;SDS011;4111;50.972;7.072;2023-12-28T02:59:18;0.90;;;0.90;;
8139;SDS011;4111;50.972;7.072;2023-12-28T03:01:44;1.00;;;1.00;;
8139;SDS011;4111;50.972;7.072;2023-12-28T03:04:11;1.00;;;1.00;;
8139;SDS011;4111;50.972;7.072;2023-12-28T03:06:37;1.60;;;1.10;;
8139;SDS011;4111;50.972;7.072;2023-12-28T03:09:12;1.20;;;1.10;;
8139;SDS011;4111;50.972;7.072;2023-12-28T03:11:38;2.50;;;1.70;;
8139;SDS011;4111;50.972;7.072;2023-12-28T03:14:05;1.27;;;1.23;;
8139;SDS011;4111;50.972;7.072;2023-12-28T03:16:34;1.50;;;1.10;;
8139;SDS011;4111;50.972;7.072;2023-12-28T03:19:00;2.57;;;1.27;;
8139;SDS011;4111;50.972;7.072;2023-12-28T03:21:27;1.27;;;1.23;;
8139;SDS011;4111;50.972;7.072;2023-12-28T03:23:53;1.27;;;1.17;;
8139;SDS011;4111;50.972;7.072;2023-12-28T03:26:22;1.70;;;1.33;;
8139;SDS011;4111;50.972;7.072;2023-12-28T03:29:00;1.07;;;1.03;;
8139;SDS011;4111;50.972;7.072;2023-12-28T03:31:27;1.57;;;1.20;;
8139;SDS011;4111;50.972;7.072;2023-12-28T03:34:00;1.13;;;1.13;;
8139;SDS011;4111;50.972;7.072;2023-12-28T03:36:29;1.37;;;1.30;;
8139;SDS011;4111;50.972;7.072;2023-12-28T03:39:05;2.17;;;1.30;;
8139;SDS011;4111;50.972;7.072;2023-12-28T03:41:31;1.40;;;1.23;;
8139;SDS011;4111;50.972;7.072;2023-12-28T03:44:05;1.47;;;1.37;;
8139;SDS011;4111;50.972;7.072;2023-12-28T03:46:52;1.17;;;1.10;;
8139;SDS011;4111;50.972;7.072;2023-12-28T03:49:34;1.40;;;1.30;;
8139;SDS011;4111;50.972;7.072;2023-12-28T03:52:14;3.30;;;1.60;;
8139;SDS011;4111;50.972;7.072;2023-12-28T03:54:47;2.07;;;1.40;;
8139;SDS011;4111;50.972;7.072;2023-12-28T03:57:27;1.40;;;1.30;;
8139;SDS011;4111;50.972;7.072;2023-12-28T04:00:03;1.67;;;1.40;;
8139;SDS011;4111;50.972;7.072;2023-12-28T04:02:33;1.33;;;1.23;;
8139;SDS011;4111;50.972;7.072;2023-12-28T04:05:02;2.70;;;1.50;;
8139;SDS011;4111;50.972;7.072;2023-12-28T04:07:30;1.90;;;1.40;;
8139;SDS011;4111;50.972;7.072;2023-12-28T04:09:56;1.47;;;1.37;;
8139;SDS011;4111;50.972;7.072;2023-12-28T04:12:25;1.50;;;1.40;;
8139;SDS011;4111;50.972;7.072;2023-12-28T04:14:55;1.50;;;1.40;;
8139;SDS011;4111;50.972;7.072;2023-12-28T04:17:24;1.50;;;1.40;;
8139;SDS011;4111;50.972;7.072;2023-12-28T04:19:53;1.40;;;1.30;;
8139;SDS011;4111;50.972;7.072;2023-12-28T04:22:32;1.67;;;1.47;;
8139;SDS011;4111;50.972;7.072;2023-12-28T04:28:09;3.60;;;1.43;;
8139;SDS011;4111;50.972;7.072;2023-12-28T04:30:35;2.13;;;1.50;;
8139;SDS011;4111;50.972;7.072;2023-12-28T04:33:24;1.73;;;1.50;;
8139;SDS011;4111;50.972;7.072;2023-12-28T04:35:51;2.70;;;1.37;;
8139;SDS011;4111;50.972;7.072;2023-12-28T04:38:38;1.73;;;1.63;;
8139;SDS011;4111;50.972;7.072;2023-12-28T04:41:05;1.50;;;1.40;;
8139;SDS011;4111;50.972;7.072;2023-12-28T04:43:31;1.40;;;1.30;;
8139;SDS011;4111;50.972;7.072;2023-12-28T04:46:02;2.27;;;1.47;;
8139;SDS011;4111;50.972;7.072;2023-12-28T04:48:30;1.10;;;1.10;;
8139;SDS011;4111;50.972;7.072;2023-12-28T04:51:06;1.83;;;1.40;;
8139;SDS011;4111;50.972;7.072;2023-12-28T04:53:32;1.80;;;1.70;;
8139;SDS011;4111;50.972;7.072;2023-12-28T04:56:02;1.67;;;1.57;;
8139;SDS011;4111;50.972;7.072;2023-12-28T04:58:31;1.67;;;1.57;;
8139;SDS011;4111;50.972;7.072;2023-12-28T05:01:04;2.53;;;1.77;;
8139;SDS011;4111;50.972;7.072;2023-12-28T05:03:31;1.37;;;1.23;;
8139;SDS011;4111;50.972;7.072;2023-12-28T05:06:01;2.23;;;1.60;;
8139;SDS011;4111;50.972;7.072;2023-12-28T05:08:28;2.30;;;1.53;;
8139;SDS011;4111;50.972;7.072;2023-12-28T05:10:54;1.57;;;1.47;;
8139;SDS011;4111;50.972;7.072;2023-12-28T05:13:27;1.67;;;1.57;;
8139;SDS011;4111;50.972;7.072;2023-12-28T05:16:01;3.37;;;1.50;;
8139;SDS011;4111;50.972;7.072;2023-12-28T05:18:30;2.93;;;1.67;;
8139;SDS011;4111;50.972;7.072;2023-12-28T05:20:56;1.33;;;1.33;;
8139;SDS011;4111;50.972;7.072;2023-12-28T05:23:23;3.23;;;1.60;;
8139;SDS011;4111;50.972;7.072;2023-12-28T05:25:49;1.70;;;1.60;;
8139;SDS011;4111;50.972;7.072;2023-12-28T05:28:16;1.53;;;1.43;;
8139;SDS011;4111;50.972;7.072;2023-12-28T05:30:43;1.80;;;1.50;;
8139;SDS011;4111;50.972;7.072;2023-12-28T05:33:09;2.70;;;1.67;;
8139;SDS011;4111;50.972;7.072;2023-12-28T05:35:38;1.43;;;1.37;;
8139;SDS011;4111;50.972;7.072;2023-12-28T05:38:04;3.63;;;1.70;;
8139;SDS011;4111;50.972;7.072;2023-12-28T05:40:31;2.60;;;1.87;;
8139;SDS011;4111;50.972;7.072;2023-12-28T05:45:27;2.70;;;2.07;;
8139;SDS011;4111;50.972;7.072;2023-12-28T05:47:54;2.43;;;1.60;;
8139;SDS011;4111;50.972;7.072;2023-12-28T05:50:26;1.60;;;1.50;;
8139;SDS011;4111;50.972;7.072;2023-12-28T05:52:52;2.23;;;1.50;;
8139;SDS011;4111;50.972;7.072;2023-12-28T05:55:19;2.57;;;1.80;;
8139;SDS011;4111;50.972;7.072;2023-12-28T05:57:45;2.17;;;1.83;;
8139;SDS011;4111;50.972;7.072;2023-12-28T06:00:12;1.73;;;1.63;;
8139;SDS011;4111;50.972;7.072;2023-12-28T06:02:39;2.37;;;1.77;;
8139;SDS011;4111;50.972;7.072;2023-12-28T06:05:05;2.20;;;1.50;;
8139;SDS011;4111;50.972;7.072;2023-12-28T06:07:32;2.50;;;1.77;;
8139;SDS011;4111;50.972;7.072;2023-12-28T06:09:59;3.27;;;2.07;;
8139;SDS011;4111;50.972;7.072;2023-12-28T06:12:26;4.90;;;1.73;;
8139;SDS011;4111;50.972;7.072;2023-12-28T06:14:52;3.53;;;1.80;;
8139;SDS011;4111;50.972;7.072;2023-12-28T06:17:19;1.70;;;1.60;;
8139;SDS011;4111;50.972;7.072;2023-12-28T06:19:45;2.93;;;1.67;;
8139;SDS011;4111;50.972;7.072;2023-12-28T06:22:12;3.60;;;1.53;;
8139;SDS011;4111;50.972;7.072;2023-12-28T06:24:39;3.60;;;2.03;;
8139;SDS011;4111;50.972;7.072;2023-12-28T06:27:06;2.67;;;1.70;;
8139;SDS011;4111;50.972;7.072;2023-12-28T06:29:33;2.20;;;1.80;;
8139;SDS011;4111;50.972;7.072;2023-12-28T06:31:59;2.53;;;1.80;;
8139;SDS011;4111;50.972;7.072;2023-12-28T06:34:26;4.60;;;2.00;;
8139;SDS011;4111;50.972;7.072;2023-12-28T06:36:53;1.83;;;1.67;;
8139;SDS011;4111;50.972;7.072;2023-12-28T06:39:19;2.40;;;1.63;;
8139;SDS011;4111;50.972;7.072;2023-12-28T06:41:49;3.00;;;1.80;;
8139;SDS011;4111;50.972;7.072;2023-12-28T06:44:15;2.10;;;1.70;;
8139;SDS011;4111;50.972;7.072;2023-12-28T06:46:42;3.17;;;1.80;;
8139;SDS011;4111;50.972;7.072;2023-12-28T06:49:08;5.00;;;2.27;;
8139;SDS011;4111;50.972;7.072;2023-12-28T06:51:37;2.60;;;1.90;;
8139;SDS011;4111;50.972;7.072;2023-12-28T06:54:03;2.13;;;1.83;;
8139;SDS011;4111;50.972;7.072;2023-12-28T06:56:30;5.47;;;1.90;;
8139;SDS011;4111;50.972;7.072;2023-12-28T06:58:56;2.10;;;1.77;;
8139;SDS011;4111;50.972;7.072;2023-12-28T07:01:23;7.00;;;2.10;;
8139;SDS011;4111;50.972;7.072;2023-12-28T07:03:49;1.70;;;1.60;;
8139;SDS011;4111;50.972;7.072;2023-12-28T07:06:16;3.77;;;1.90;;
8139;SDS011;4111;50.972;7.072;2023-12-28T07:08:42;2.10;;;1.83;;
8139;SDS011;4111;50.972;7.072;2023-12-28T07:11:11;4.53;;;2.20;;
8139;SDS011;4111;50.972;7.072;2023-12-28T07:13:38;3.30;;;2.00;;
8139;SDS011;4111;50.972;7.072;2023-12-28T07:16:05;2.60;;;2.40;;
8139;SDS011;4111;50.972;7.072;2023-12-28T07:18:33;3.20;;;2.90;;
8139;SDS011;4111;50.972;7.072;2023-12-28T07:21:00;2.30;;;2.20;;
8139;SDS011;4111;50.972;7.072;2023-12-28T07:23:26;2.47;;;2.13;;
8139;SDS011;4111;50.972;7.072;2023-12-28T07:25:53;2.03;;;1.73;;
8139;SDS011;4111;50.972;7.072;2023-12-28T07:28:19;2.20;;;2.00;;
8139;SDS011;4111;50.972;7.072;2023-12-28T07:30:46;3.47;;;1.70;;
8139;SDS011;4111;50.972;7.072;2023-12-28T07:33:13;2.17;;;1.63;;
8139;SDS011;4111;50.972;7.072;2023-12-28T07:35:40;5.23;;;1.90;;
8139;SDS011;4111;50.972;7.072;2023-12-28T07:38:06;2.60;;;2.10;;
8139;SDS011;4111;50.972;7.072;2023-12-28T07:40:33;1.97;;;1.77;;
8139;SDS011;4111;50.972;7.072;2023-12-28T07:42:59;2.97;;;1.67;;
8139;SDS011;4111;50.972;7.072;2023-12-28T07:45:27;2.93;;;1.60;;
8139;SDS011;4111;50.972;7.072;2023-12-28T07:47:54;4.80;;;1.87;;
8139;SDS011;4111;50.972;7.072;2023-12-28T07:50:20;3.53;;;1.90;;
8139;SDS011;4111;50.972;7.072;2023-12-28T07:52:47;2.47;;;1.90;;
8139;SDS011;4111;50.972;7.072;2023-12-28T07:55:14;3.00;;;1.87;;
8139;SDS011;4111;50.972;7.072;2023-12-28T07:57:41;3.93;;;2.47;;
8139;SDS011;4111;50.972;7.072;2023-12-28T08:00:08;2.50;;;1.50;;
8139;SDS011;4111;50.972;7.072;2023-12-28T08:02:35;3.47;;;1.70;;
8139;SDS011;4111;50.972;7.072;2023-12-28T08:05:03;1.80;;;1.70;;
8139;SDS011;4111;50.972;7.072;2023-12-28T08:07:30;3.43;;;1.73;;
8139;SDS011;4111;50.972;7.072;2023-12-28T08:09:56;3.60;;;1.90;;
8139;SDS011;4111;50.972;7.072;2023-12-28T08:12:23;3.70;;;1.67;;
8139;SDS011;4111;50.972;7.072;2023-12-28T08:14:50;3.40;;;1.70;;
8139;SDS011;4111;50.972;7.072;2023-12-28T08:17:17;3.07;;;1.90;;
8139;SDS011;4111;50.972;7.072;2023-12-28T08:19:43;7.60;;;1.80;;
8139;SDS011;4111;50.972;7.072;2023-12-28T08:22:10;3.37;;;1.70;;
8139;SDS011;4111;50.972;7.072;2023-12-28T08:24:36;1.60;;;1.30;;
8139;SDS011;4111;50.972;7.072;2023-12-28T08:27:03;2.93;;;1.90;;
8139;SDS011;4111;50.972;7.072;2023-12-28T08:29:29;3.43;;;2.30;;
8139;SDS011;4111;50.972;7.072;2023-12-28T08:31:56;3.37;;;1.70;;
8139;SDS011;4111;50.972;7.072;2023-12-28T08:34:22;3.73;;;2.33;;
8139;SDS011;4111;50.972;7.072;2023-12-28T08:36:49;3.90;;;1.70;;
8139;SDS011;4111;50.972;7.072;2023-12-28T08:39:16;2.87;;;1.97;;
8139;SDS011;4111;50.972;7.072;2023-12-28T08:41:42;4.73;;;1.90;;
8139;SDS011;4111;50.972;7.072;2023-12-28T08:44:08;3.63;;;1.70;;
8139;SDS011;4111;50.972;7.072;2023-12-28T08:46:35;4.93;;;2.00;;
8139;SDS011;4111;50.972;7.072;2023-12-28T08:49:01;5.93;;;2.00;;
8139;SDS011;4111;50.972;7.072;2023-12-28T08:51:28;3.80;;;2.27;;
8139;SDS011;4111;50.972;7.072;2023-12-28T08:53:54;5.50;;;2.13;;
8139;SDS011;4111;50.972;7.072;2023-12-28T08:56:21;2.80;;;1.57;;
8139;SDS011;4111;50.972;7.072;2023-12-28T08:58:49;2.70;;;2.03;;
8139;SDS011;4111;50.972;7.072;2023-12-28T09:01:16;5.03;;;2.00;;
8139;SDS011;4111;50.972;7.072;2023-12-28T09:03:44;6.50;;;2.20;;
8139;SDS011;4111;50.972;7.072;2023-12-28T09:06:11;2.63;;;1.80;;
8139;SDS011;4111;50.972;7.072;2023-12-28T09:08:40;5.00;;;2.17;;
8139;SDS011;4111;50.972;7.072;2023-12-28T09:11:08;3.07;;;1.80;;
8139;SDS011;4111;50.972;7.072;2023-12-28T09:13:36;4.90;;;2.03;;
8139;SDS011;4111;50.972;7.072;2023-12-28T09:16:02;3.23;;;2.00;;
8139;SDS011;4111;50.972;7.072;2023-12-28T09:18:33;2.60;;;2.30;;
8139;SDS011;4111;50.972;7.072;2023-12-28T09:21:00;6.67;;;2.03;;
8139;SDS011;4111;50.972;7.072;2023-12-28T09:23:26;3.57;;;2.00;;
8139;SDS011;4111;50.972;7.072;2023-12-28T09:25:53;3.73;;;1.83;;
8139;SDS011;4111;50.972;7.072;2023-12-28T09:28:19;5.10;;;2.10;;
8139;SDS011;4111;50.972;7.072;2023-12-28T09:30:46;4.87;;;2.00;;
8139;SDS011;4111;50.972;7.072;2023-12-28T09:33:12;4.13;;;1.83;;
8139;SDS011;4111;50.972;7.072;2023-12-28T09:35:39;4.67;;;2.20;;
8139;SDS011;4111;50.972;7.072;2023-12-28T09:38:05;3.27;;;2.00;;
8139;SDS011;4111;50.972;7.072;2023-12-28T09:40:32;5.70;;;2.37;;
8139;SDS011;4111;50.972;7.072;2023-12-28T09:43:09;4.37;;;1.70;;
8139;SDS011;4111;50.972;7.072;2023-12-28T09:45:40;7.60;;;2.07;;
8139;SDS011;4111;50.972;7.072;2023-12-28T09:48:07;5.43;;;1.83;;
8139;SDS011;4111;50.972;7.072;2023-12-28T09:50:34;5.53;;;1.97;;
8139;SDS011;4111;50.972;7.072;2023-12-28T09:53:00;4.83;;;2.20;;
8139;SDS011;4111;50.972;7.072;2023-12-28T09:55:28;4.33;;;2.20;;
8139;SDS011;4111;50.972;7.072;2023-12-28T09:57:55;4.63;;;1.93;;
8139;SDS011;4111;50.972;7.072;2023-12-28T10:00:23;5.37;;;2.10;;
8139;SDS011;4111;50.972;7.072;2023-12-28T10:02:50;4.43;;;2.53;;
8139;SDS011;4111;50.972;7.072;2023-12-28T10:05:16;6.07;;;1.93;;
8139;SDS011;4111;50.972;7.072;2023-12-28T10:07:43;4.87;;;2.47;;
8139;SDS011;4111;50.972;7.072;2023-12-28T10:10:15;4.53;;;1.87;;
8139;SDS011;4111;50.972;7.072;2023-12-28T10:12:42;2.83;;;1.93;;
8139;SDS011;4111;50.972;7.072;2023-12-28T10:15:09;3.27;;;1.87;;
8139;SDS011;4111;50.972;7.072;2023-12-28T10:17:36;5.23;;;2.27;;
8139;SDS011;4111;50.972;7.072;2023-12-28T10:20:03;6.30;;;2.47;;
8139;SDS011;4111;50.972;7.072;2023-12-28T10:22:36;6.73;;;2.37;;
8139;SDS011;4111;50.972;7.072;2023-12-28T10:25:03;3.60;;;2.17;;
8139;SDS011;4111;50.972;7.072;2023-12-28T10:27:30;4.43;;;1.97;;
8139;SDS011;4111;50.972;7.072;2023-12-28T10:29:57;7.33;;;2.50;;
8139;SDS011;4111;50.972;7.072;2023-12-28T10:32:23;6.63;;;2.20;;
8139;SDS011;4111;50.972;7.072;2023-12-28T10:34:51;6.10;;;2.00;;
8139;SDS011;4111;50.972;7.072;2023-12-28T10:37:20;2.90;;;1.70;;
8139;SDS011;4111;50.972;7.072;2023-12-28T10:39:48;4.17;;;1.77;;
8139;SDS011;4111;50.972;7.072;2023-12-28T10:42:24;5.53;;;2.10;;
8139;SDS011;4111;50.972;7.072;2023-12-28T10:45:03;5.13;;;1.93;;
8139;SDS011;4111;50.972;7.072;2023-12-28T10:47:33;7.77;;;2.30;;
8139;SDS011;4111;50.972;7.072;2023-12-28T10:50:08;4.30;;;1.70;;
8139;SDS011;4111;50.972;7.072;2023-12-28T10:52:37;4.47;;;1.77;;
8139;SDS011;4111;50.972;7.072;2023-12-28T10:55:15;5.53;;;2.10;;
8139;SDS011;4111;50.972;7.072;2023-12-28T10:57:53;4.17;;;1.90;;
8139;SDS011;4111;50.972;7.072;2023-12-28T11:00:30;4.13;;;2.00;;
8139;SDS011;4111;50.972;7.072;2023-12-28T11:03:02;5.70;;;1.97;;
8139;SDS011;4111;50.972;7.072;2023-12-28T11:05:32;4.77;;;1.70;;
8139;SDS011;4111;50.972;7.072;2023-12-28T11:07:59;4.97;;;2.43;;
8139;SDS011;4111;50.972;7.072;2023-12-28T11:10:26;8.10;;;1.97;;
8139;SDS011;4111;50.972;7.072;2023-12-28T11:12:56;4.13;;;2.20;;
8139;SDS011;4111;50.972;7.072;2023-12-28T11:15:23;6.93;;;2.73;;
8139;SDS011;4111;50.972;7.072;2023-12-28T11:17:51;3.37;;;1.93;;
8139;SDS011;4111;50.972;7.072;2023-12-28T11:20:18;5.40;;;1.83;;
8139;SDS011;4111;50.972;7.072;2023-12-28T11:22:45;4.83;;;1.80;;
8139;SDS011;4111;50.972;7.072;2023-12-28T11:25:14;6.63;;;2.20;;
8139;SDS011;4111;50.972;7.072;2023-12-28T11:27:45;8.13;;;2.27;;
8139;SDS011;4111;50.972;7.072;2023-12-28T11:30:15;5.83;;;1.93;;
8139;SDS011;4111;50.972;7.072;2023-12-28T11:32:42;5.03;;;1.90;;
8139;SDS011;4111;50.972;7.072;2023-12-28T11:35:12;5.53;;;1.90;;
8139;SDS011;4111;50.972;7.072;2023-12-28T11:37:42;4.20;;;1.90;;
8139;SDS011;4111;50.972;7.072;2023-12-28T11:40:13;5.33;;;2.03;;
8139;SDS011;4111;50.972;7.072;2023-12-28T11:45:20;5.07;;;1.90;;
8139;SDS011;4111;50.972;7.072;2023-12-28T11:48:01;3.30;;;1.70;;
8139;SDS011;4111;50.972;7.072;2023-12-28T11:50:29;8.67;;;2.27;;
8139;SDS011;4111;50.972;7.072;2023-12-28T11:52:55;4.00;;;1.57;;
8139;SDS011;4111;50.972;7.072;2023-12-28T11:55:22;6.23;;;2.23;;
8139;SDS011;4111;50.972;7.072;2023-12-28T11:57:49;7.10;;;1.70;;
8139;SDS011;4111;50.972;7.072;2023-12-28T12:00:16;3.87;;;1.70;;
8139;SDS011;4111;50.972;7.072;2023-12-28T12:02:43;4.10;;;1.70;;
8139;SDS011;4111;50.972;7.072;2023-12-28T12:05:14;6.60;;;2.00;;
8139;SDS011;4111;50.972;7.072;2023-12-28T12:07:41;5.17;;;1.73;;
8139;SDS011;4111;50.972;7.072;2023-12-28T12:10:13;5.57;;;1.73;;
8139;SDS011;4111;50.972;7.072;2023-12-28T12:12:40;4.83;;;2.10;;
8139;SDS011;4111;50.972;7.072;2023-12-28T12:15:08;3.90;;;1.83;;
8139;SDS011;4111;50.972;7.072;2023-12-28T12:17:35;5.37;;;1.60;;
8139;SDS011;4111;50.972;7.072;2023-12-28T12:20:02;4.70;;;1.80;;
8139;SDS011;4111;50.972;7.072;2023-12-28T12:22:31;5.07;;;1.80;;
8139;SDS011;4111;50.972;7.072;2023-12-28T12:24:58;6.73;;;1.80;;
8139;SDS011;4111;50.972;7.072;2023-12-28T12:27:30;3.97;;;1.70;;
8139;SDS011;4111;50.972;7.072;2023-12-28T12:29:57;5.03;;;2.00;;
8139;SDS011;4111;50.972;7.072;2023-12-28T12:32:24;4.07;;;1.93;;
8139;SDS011;4111;50.972;7.072;2023-12-28T12:34:51;5.20;;;2.03;;
8139;SDS011;4111;50.972;7.072;2023-12-28T12:37:17;10.43;;;2.53;;
8139;SDS011;4111;50.972;7.072;2023-12-28T12:39:44;3.17;;;1.63;;
8139;SDS011;4111;50.972;7.072;2023-12-28T12:42:14;3.97;;;1.90;;
8139;SDS011;4111;50.972;7.072;2023-12-28T12:44:41;9.30;;;4.37;;
8139;SDS011;4111;50.972;7.072;2023-12-28T12:47:07;4.47;;;1.80;;
8139;SDS011;4111;50.972;7.072;2023-12-28T12:49:34;5.07;;;1.83;;
8139;SDS011;4111;50.972;7.072;2023-12-28T12:52:00;4.70;;;1.80;;
8139;SDS011;4111;50.972;7.072;2023-12-28T12:54:30;4.23;;;1.77;;
8139;SDS011;4111;50.972;7.072;2023-12-28T12:56:57;7.07;;;1.90;;
8139;SDS011;4111;50.972;7.072;2023-12-28T12:59:23;3.10;;;1.73;;
8139;SDS011;4111;50.972;7.072;2023-12-28T13:01:51;3.67;;;1.93;;
8139;SDS011;4111;50.972;7.072;2023-12-28T13:04:19;6.70;;;2.47;;
8139;SDS011;4111;50.972;7.072;2023-12-28T13:06:47;6.23;;;2.10;;
8139;SDS011;4111;50.972;7.072;2023-12-28T13:09:14;4.23;;;1.90;;
8139;SDS011;4111;50.972;7.072;2023-12-28T13:11:41;7.60;;;2.10;;
8139;SDS011;4111;50.972;7.072;2023-12-28T13:14:07;5.90;;;2.20;;
8139;SDS011;4111;50.972;7.072;2023-12-28T13:16:34;6.43;;;2.30;;
8139;SDS011;4111;50.972;7.072;2023-12-28T13:19:00;4.03;;;1.83;;
8139;SDS011;4111;50.972;7.072;2023-12-28T13:21:27;4.10;;;1.90;;
8139;SDS011;4111;50.972;7.072;2023-12-28T13:23:53;5.93;;;2.23;;
8139;SDS011;4111;50.972;7.072;2023-12-28T13:26:20;3.93;;;1.50;;
8139;SDS011;4111;50.972;7.072;2023-12-28T13:28:46;6.53;;;2.10;;
8139;SDS011;4111;50.972;7.072;2023-12-28T13:31:13;4.93;;;1.90;;
8139;SDS011;4111;50.972;7.072;2023-12-28T13:33:40;5.40;;;2.23;;
8139;SDS011;4111;50.972;7.072;2023-12-28T13:36:06;6.27;;;2.00;;
8139;SDS011;4111;50.972;7.072;2023-12-28T13:38:33;5.00;;;1.97;;
8139;SDS011;4111;50.972;7.072;2023-12-28T13:40:59;5.03;;;1.90;;
8139;SDS011;4111;50.972;7.072;2023-12-28T13:43:26;4.00;;;1.60;;
8139;SDS011;4111;50.972;7.072;2023-12-28T13:45:52;6.97;;;1.93;;
8139;SDS011;4111;50.972;7.072;2023-12-28T13:48:19;4.00;;;1.83;;
8139;SDS011;4111;50.972;7.072;2023-12-28T13:50:46;5.30;;;1.73;;
8139;SDS011;4111;50.972;7.072;2023-12-28T13:53:12;9.03;;;2.17;;
8139;SDS011;4111;50.972;7.072;2023-12-28T13:55:38;4.43;;;1.83;;
8139;SDS011;4111;50.972;7.072;2023-12-28T13:58:05;4.83;;;1.80;;
8139;SDS011;4111;50.972;7.072;2023-12-28T14:00:31;4.90;;;1.93;;
8139;SDS011;4111;50.972;7.072;2023-12-28T14:02:57;6.23;;;1.73;;
8139;SDS011;4111;50.972;7.072;2023-12-28T14:05:25;3.57;;;1.60;;
8139;SDS011;4111;50.972;7.072;2023-12-28T14:07:53;3.63;;;1.73;;
8139;SDS011;4111;50.972;7.072;2023-12-28T14:10:19;4.20;;;1.90;;
8139;SDS011;4111;50.972;7.072;2023-12-28T14:12:46;5.13;;;2.43;;
8139;SDS011;4111;50.972;7.072;2023-12-28T14:15:12;3.97;;;1.90;;
8139;SDS011;4111;50.972;7.072;2023-12-28T14:17:41;6.37;;;1.80;;
8139;SDS011;4111;50.972;7.072;2023-12-28T14:20:08;4.47;;;1.83;;
8139;SDS011;4111;50.972;7.072;2023-12-28T14:22:38;6.60;;;2.27;;
8139;SDS011;4111;50.972;7.072;2023-12-28T14:25:05;4.87;;;2.23;;
8139;SDS011;4111;50.972;7.072;2023-12-28T14:27:32;6.83;;;1.80;;
8139;SDS011;4111;50.972;7.072;2023-12-28T14:29:59;6.93;;;1.93;;
8139;SDS011;4111;50.972;7.072;2023-12-28T14:32:29;5.83;;;1.83;;
8139;SDS011;4111;50.972;7.072;2023-12-28T14:34:56;3.97;;;1.80;;
8139;SDS011;4111;50.972;7.072;2023-12-28T14:37:23;5.17;;;1.80;;
8139;SDS011;4111;50.972;7.072;2023-12-28T14:39:50;2.93;;;1.60;;
8139;SDS011;4111;50.972;7.072;2023-12-28T14:42:17;2.57;;;1.50;;
8139;SDS011;4111;50.972;7.072;2023-12-28T14:44:43;7.17;;;1.87;;
8139;SDS011;4111;50.972;7.072;2023-12-28T14:47:10;5.47;;;1.70;;
8139;SDS011;4111;50.972;7.072;2023-12-28T14:53:17;7.27;;;1.97;;
8139;SDS011;4111;50.972;7.072;2023-12-28T14:55:44;6.30;;;1.70;;
8139;SDS011;4111;50.972;7.072;2023-12-28T14:58:10;7.03;;;2.07;;
8139;SDS011;4111;50.972;7.072;2023-12-28T15:00:37;4.67;;;2.00;;
8139;SDS011;4111;50.972;7.072;2023-12-28T15:03:04;3.77;;;1.60;;
8139;SDS011;4111;50.972;7.072;2023-12-28T15:05:30;5.13;;;1.87;;
8139;SDS011;4111;50.972;7.072;2023-12-28T15:07:57;6.63;;;2.23;;
8139;SDS011;4111;50.972;7.072;2023-12-28T15:10:24;4.80;;;2.00;;
8139;SDS011;4111;50.972;7.072;2023-12-28T15:12:50;4.67;;;1.70;;
8139;SDS011;4111;50.972;7.072;2023-12-28T15:15:20;7.83;;;2.20;;
8139;SDS011;4111;50.972;7.072;2023-12-28T15:17:46;5.20;;;1.90;;
8139;SDS011;4111;50.972;7.072;2023-12-28T15:20:13;4.67;;;1.70;;
8139;SDS011;4111;50.972;7.072;2023-12-28T15:22:40;8.93;;;2.30;;
8139;SDS011;4111;50.972;7.072;2023-12-28T15:25:07;5.13;;;2.10;;
8139;SDS011;4111;50.972;7.072;2023-12-28T15:27:34;5.50;;;2.10;;
8139;SDS011;4111;50.972;7.072;2023-12-28T15:30:01;8.33;;;1.83;;
8139;SDS011;4111;50.972;7.072;2023-12-28T15:32:27;3.33;;;1.87;;
8139;SDS011;4111;50.972;7.072;2023-12-28T15:34:54;5.80;;;2.27;;
8139;SDS011;4111;50.972;7.072;2023-12-28T15:37:21;7.30;;;2.03;;
8139;SDS011;4111;50.972;7.072;2023-12-28T15:39:47;7.30;;;2.03;;
8139;SDS011;4111;50.972;7.072;2023-12-28T15:42:14;7.47;;;2.23;;
8139;SDS011;4111;50.972;7.072;2023-12-28T15:44:40;8.40;;;1.97;;
8139;SDS011;4111;50.972;7.072;2023-12-28T15:47:07;6.57;;;2.27;;